sensor_id;sensor_type;location;lat;lon;timestamp;temperature;humidity
13521;DHT22;6832;51.186;3.236;2022-11-30T00:00:26;8.50;94.80
13521;DHT22;6832;51.186;3.236;2022-11-30T00:02:58;8.50;94.80
13521;DHT22;6832;51.186;3.236;2022-11-30T00:05:29;8.50;94.80
13521;DHT22;6832;51.186;3.236;2022-11-30T00:08:11;8.50;94.90
13521;DHT22;6832;51.186;3.236;2022-11-30T00:10:54;8.50;95.00
13521;DHT22;6832;51.186;3.236;2022-11-30T00:13:40;8.50;95.00
13521;DHT22;6832;51.186;3.236;2022-11-30T00:16:25;8.50;95.00
13521;DHT22;6832;51.186;3.236;2022-11-30T00:19:11;8.50;95.10
13521;DHT22;6832;51.186;3.236;2022-11-30T00:21:58;8.50;95.10
13521;DHT22;6832;51.186;3.236;2022-11-30T00:24:26;8.50;95.10
13521;DHT22;6832;51.186;3.236;2022-11-30T00:27:06;8.60;95.20
13521;DHT22;6832;51.186;3.236;2022-11-30T00:29:35;8.60;95.20
13521;DHT22;6832;51.186;3.236;2022-11-30T00:32:12;8.60;95.20
13521;DHT22;6832;51.186;3.236;2022-11-30T00:34:45;8.60;95.10
13521;DHT22;6832;51.186;3.236;2022-11-30T00:37:24;8.70;95.20
13521;DHT22;6832;51.186;3.236;2022-11-30T00:39:57;8.70;95.20
13521;DHT22;6832;51.186;3.236;2022-11-30T00:42:27;8.60;95.10
13521;DHT22;6832;51.186;3.236;2022-11-30T00:45:06;8.70;95.20
13521;DHT22;6832;51.186;3.236;2022-11-30T00:47:36;8.70;95.20
13521;DHT22;6832;51.186;3.236;2022-11-30T00:50:12;8.70;95.20
13521;DHT22;6832;51.186;3.236;2022-11-30T00:52:53;8.70;95.20
13521;DHT22;6832;51.186;3.236;2022-11-30T00:55:27;8.70;95.20
13521;DHT22;6832;51.186;3.236;2022-11-30T00:58:06;8.80;95.20
13521;DHT22;6832;51.186;3.236;2022-11-30T01:00:40;8.80;95.20
13521;DHT22;6832;51.186;3.236;2022-11-30T01:03:11;8.80;95.10
13521;DHT22;6832;51.186;3.236;2022-11-30T01:05:41;8.80;95.10
13521;DHT22;6832;51.186;3.236;2022-11-30T01:08:14;8.80;95.00
13521;DHT22;6832;51.186;3.236;2022-11-30T01:10:48;8.80;95.00
13521;DHT22;6832;51.186;3.236;2022-11-30T01:13:46;8.80;95.00
13521;DHT22;6832;51.186;3.236;2022-11-30T01:16:15;8.80;95.00
13521;DHT22;6832;51.186;3.236;2022-11-30T01:18:44;8.80;94.80
13521;DHT22;6832;51.186;3.236;2022-11-30T01:21:15;8.80;94.80
13521;DHT22;6832;51.186;3.236;2022-11-30T01:23:49;8.80;94.80
13521;DHT22;6832;51.186;3.236;2022-11-30T01:26:22;8.80;94.90
13521;DHT22;6832;51.186;3.236;2022-11-30T01:28:53;8.80;95.00
13521;DHT22;6832;51.186;3.236;2022-11-30T01:31:35;8.80;95.10
13521;DHT22;6832;51.186;3.236;2022-11-30T01:34:06;8.80;95.10
13521;DHT22;6832;51.186;3.236;2022-11-30T01:36:41;8.80;95.20
13521;DHT22;6832;51.186;3.236;2022-11-30T01:39:11;8.80;95.10
13521;DHT22;6832;51.186;3.236;2022-11-30T01:41:47;8.80;95.10
13521;DHT22;6832;51.186;3.236;2022-11-30T01:44:53;8.80;95.00
13521;DHT22;6832;51.186;3.236;2022-11-30T01:47:30;8.80;95.10
13521;DHT22;6832;51.186;3.236;2022-11-30T01:50:03;8.80;95.00
13521;DHT22;6832;51.186;3.236;2022-11-30T01:52:40;8.80;95.10
13521;DHT22;6832;51.186;3.236;2022-11-30T01:55:16;8.70;95.10
13521;DHT22;6832;51.186;3.236;2022-11-30T01:57:58;8.80;95.50
13521;DHT22;6832;51.186;3.236;2022-11-30T02:00:58;8.80;95.30
13521;DHT22;6832;51.186;3.236;2022-11-30T02:03:38;8.80;95.30
13521;DHT22;6832;51.186;3.236;2022-11-30T02:06:14;8.80;95.20
13521;DHT22;6832;51.186;3.236;2022-11-30T02:08:52;8.80;95.30
13521;DHT22;6832;51.186;3.236;2022-11-30T02:11:30;8.80;95.30
13521;DHT22;6832;51.186;3.236;2022-11-30T02:14:25;8.80;95.30
13521;DHT22;6832;51.186;3.236;2022-11-30T02:17:08;8.90;95.40
13521;DHT22;6832;51.186;3.236;2022-11-30T02:20:17;8.80;95.30
13521;DHT22;6832;51.186;3.236;2022-11-30T02:23:39;8.90;95.30
13521;DHT22;6832;51.186;3.236;2022-11-30T02:26:31;8.90;95.30
13521;DHT22;6832;51.186;3.236;2022-11-30T02:29:11;8.90;95.20
13521;DHT22;6832;51.186;3.236;2022-11-30T02:31:47;8.90;95.30
13521;DHT22;6832;51.186;3.236;2022-11-30T02:34:26;8.90;95.30
13521;DHT22;6832;51.186;3.236;2022-11-30T02:37:02;8.90;95.30
13521;DHT22;6832;51.186;3.236;2022-11-30T02:39:32;8.90;95.30
13521;DHT22;6832;51.186;3.236;2022-11-30T02:42:10;8.90;95.30
13521;DHT22;6832;51.186;3.236;2022-11-30T02:44:45;8.90;95.30
13521;DHT22;6832;51.186;3.236;2022-11-30T02:47:22;8.90;95.20
13521;DHT22;6832;51.186;3.236;2022-11-30T02:49:55;8.90;95.20
13521;DHT22;6832;51.186;3.236;2022-11-30T02:52:34;8.90;95.30
13521;DHT22;6832;51.186;3.236;2022-11-30T02:55:07;9.00;95.30
13521;DHT22;6832;51.186;3.236;2022-11-30T02:57:37;9.00;95.30
13521;DHT22;6832;51.186;3.236;2022-11-30T03:00:11;9.00;95.30
13521;DHT22;6832;51.186;3.236;2022-11-30T03:02:39;9.00;95.30
13521;DHT22;6832;51.186;3.236;2022-11-30T03:05:22;9.00;95.20
13521;DHT22;6832;51.186;3.236;2022-11-30T03:07:56;9.00;95.10
13521;DHT22;6832;51.186;3.236;2022-11-30T03:10:23;9.00;95.00
13521;DHT22;6832;51.186;3.236;2022-11-30T03:12:51;9.00;95.00
13521;DHT22;6832;51.186;3.236;2022-11-30T03:15:42;9.00;94.80
13521;DHT22;6832;51.186;3.236;2022-11-30T03:18:13;9.00;94.80
13521;DHT22;6832;51.186;3.236;2022-11-30T03:20:47;9.00;94.70
13521;DHT22;6832;51.186;3.236;2022-11-30T03:23:19;9.00;94.80
13521;DHT22;6832;51.186;3.236;2022-11-30T03:25:49;9.00;94.80
13521;DHT22;6832;51.186;3.236;2022-11-30T03:28:27;9.00;94.80
13521;DHT22;6832;51.186;3.236;2022-11-30T03:31:04;9.00;94.80
13521;DHT22;6832;51.186;3.236;2022-11-30T03:33:41;9.00;94.80
13521;DHT22;6832;51.186;3.236;2022-11-30T03:36:17;9.00;94.90
13521;DHT22;6832;51.186;3.236;2022-11-30T03:39:03;8.90;94.90
13521;DHT22;6832;51.186;3.236;2022-11-30T03:41:49;9.00;95.10
13521;DHT22;6832;51.186;3.236;2022-11-30T03:44:46;9.00;95.10
13521;DHT22;6832;51.186;3.236;2022-11-30T03:47:19;9.00;95.00
13521;DHT22;6832;51.186;3.236;2022-11-30T03:49:58;9.00;94.90
13521;DHT22;6832;51.186;3.236;2022-11-30T03:52:33;8.90;95.00
13521;DHT22;6832;51.186;3.236;2022-11-30T03:55:17;8.90;94.90
13521;DHT22;6832;51.186;3.236;2022-11-30T03:57:54;9.00;94.90
13521;DHT22;6832;51.186;3.236;2022-11-30T04:00:25;8.90;94.80
13521;DHT22;6832;51.186;3.236;2022-11-30T04:03:03;8.90;94.90
13521;DHT22;6832;51.186;3.236;2022-11-30T04:05:35;8.90;95.00
13521;DHT22;6832;51.186;3.236;2022-11-30T04:08:06;8.90;94.90
13521;DHT22;6832;51.186;3.236;2022-11-30T04:17:25;9.00;95.00
13521;DHT22;6832;51.186;3.236;2022-11-30T04:20:19;9.00;94.90
13521;DHT22;6832;51.186;3.236;2022-11-30T04:22:55;8.90;94.90
13521;DHT22;6832;51.186;3.236;2022-11-30T04:25:33;9.00;94.90
13521;DHT22;6832;51.186;3.236;2022-11-30T04:28:36;8.90;94.80
13521;DHT22;6832;51.186;3.236;2022-11-30T04:31:04;8.90;94.90
13521;DHT22;6832;51.186;3.236;2022-11-30T04:33:52;8.90;94.80
13521;DHT22;6832;51.186;3.236;2022-11-30T04:36:33;8.90;94.80
13521;DHT22;6832;51.186;3.236;2022-11-30T04:39:08;8.90;94.90
13521;DHT22;6832;51.186;3.236;2022-11-30T04:41:38;9.00;94.90
13521;DHT22;6832;51.186;3.236;2022-11-30T04:44:09;8.90;95.00
13521;DHT22;6832;51.186;3.236;2022-11-30T04:46:40;8.90;94.90
13521;DHT22;6832;51.186;3.236;2022-11-30T04:52:38;8.90;94.90
13521;DHT22;6832;51.186;3.236;2022-11-30T04:55:24;8.90;94.90
13521;DHT22;6832;51.186;3.236;2022-11-30T04:57:56;9.00;95.00
13521;DHT22;6832;51.186;3.236;2022-11-30T05:00:31;8.90;94.90
13521;DHT22;6832;51.186;3.236;2022-11-30T05:03:15;8.90;95.00
13521;DHT22;6832;51.186;3.236;2022-11-30T05:05:51;9.00;95.10
13521;DHT22;6832;51.186;3.236;2022-11-30T05:08:27;9.00;95.10
13521;DHT22;6832;51.186;3.236;2022-11-30T05:11:16;9.00;95.10
13521;DHT22;6832;51.186;3.236;2022-11-30T05:13:47;9.00;95.10
13521;DHT22;6832;51.186;3.236;2022-11-30T05:16:23;9.00;95.10
13521;DHT22;6832;51.186;3.236;2022-11-30T05:19:07;9.00;95.10
13521;DHT22;6832;51.186;3.236;2022-11-30T05:21:40;9.00;94.90
13521;DHT22;6832;51.186;3.236;2022-11-30T05:27:42;9.00;95.40
13521;DHT22;6832;51.186;3.236;2022-11-30T05:30:27;9.00;95.10
13521;DHT22;6832;51.186;3.236;2022-11-30T05:33:07;9.00;94.90
13521;DHT22;6832;51.186;3.236;2022-11-30T05:35:45;9.00;95.00
13521;DHT22;6832;51.186;3.236;2022-11-30T05:38:18;9.00;95.00
13521;DHT22;6832;51.186;3.236;2022-11-30T05:40:48;9.00;95.10
13521;DHT22;6832;51.186;3.236;2022-11-30T05:43:18;9.00;95.00
13521;DHT22;6832;51.186;3.236;2022-11-30T05:45:48;9.00;95.10
13521;DHT22;6832;51.186;3.236;2022-11-30T05:48:22;9.00;95.20
13521;DHT22;6832;51.186;3.236;2022-11-30T05:51:02;9.00;95.20
13521;DHT22;6832;51.186;3.236;2022-11-30T05:53:35;9.00;95.30
13521;DHT22;6832;51.186;3.236;2022-11-30T05:56:09;9.00;95.10
13521;DHT22;6832;51.186;3.236;2022-11-30T05:59:01;9.00;95.20
13521;DHT22;6832;51.186;3.236;2022-11-30T06:01:29;9.00;95.30
13521;DHT22;6832;51.186;3.236;2022-11-30T06:04:03;9.00;95.30
13521;DHT22;6832;51.186;3.236;2022-11-30T06:06:35;9.00;95.30
13521;DHT22;6832;51.186;3.236;2022-11-30T06:09:14;9.00;95.30
13521;DHT22;6832;51.186;3.236;2022-11-30T06:11:53;9.10;95.30
13521;DHT22;6832;51.186;3.236;2022-11-30T06:14:24;9.10;95.30
13521;DHT22;6832;51.186;3.236;2022-11-30T06:17:03;9.10;95.40
13521;DHT22;6832;51.186;3.236;2022-11-30T06:19:31;9.10;95.30
13521;DHT22;6832;51.186;3.236;2022-11-30T06:22:13;9.10;95.40
13521;DHT22;6832;51.186;3.236;2022-11-30T06:24:44;9.10;95.30
13521;DHT22;6832;51.186;3.236;2022-11-30T06:27:12;9.10;95.50
13521;DHT22;6832;51.186;3.236;2022-11-30T06:29:54;9.10;95.30
13521;DHT22;6832;51.186;3.236;2022-11-30T06:32:25;9.10;95.30
13521;DHT22;6832;51.186;3.236;2022-11-30T06:35:03;9.10;95.30
13521;DHT22;6832;51.186;3.236;2022-11-30T06:37:32;9.20;95.40
13521;DHT22;6832;51.186;3.236;2022-11-30T06:40:12;9.10;95.30
13521;DHT22;6832;51.186;3.236;2022-11-30T06:42:46;9.20;95.30
13521;DHT22;6832;51.186;3.236;2022-11-30T06:45:24;9.20;95.30
13521;DHT22;6832;51.186;3.236;2022-11-30T06:47:59;9.20;95.30
13521;DHT22;6832;51.186;3.236;2022-11-30T06:50:28;9.20;95.30
13521;DHT22;6832;51.186;3.236;2022-11-30T06:52:58;9.20;95.30
13521;DHT22;6832;51.186;3.236;2022-11-30T06:55:26;9.20;95.20
13521;DHT22;6832;51.186;3.236;2022-11-30T06:58:04;9.20;95.20
13521;DHT22;6832;51.186;3.236;2022-11-30T07:00:38;9.20;95.20
13521;DHT22;6832;51.186;3.236;2022-11-30T07:03:12;9.20;95.20
13521;DHT22;6832;51.186;3.236;2022-11-30T07:05:43;9.20;95.20
13521;DHT22;6832;51.186;3.236;2022-11-30T07:08:10;9.20;95.20
13521;DHT22;6832;51.186;3.236;2022-11-30T07:10:40;9.20;95.20
13521;DHT22;6832;51.186;3.236;2022-11-30T07:13:14;9.20;95.20
13521;DHT22;6832;51.186;3.236;2022-11-30T07:15:46;9.20;95.10
13521;DHT22;6832;51.186;3.236;2022-11-30T07:18:18;9.30;95.10
13521;DHT22;6832;51.186;3.236;2022-11-30T07:21:09;9.30;95.00
13521;DHT22;6832;51.186;3.236;2022-11-30T07:23:38;9.20;95.10
13521;DHT22;6832;51.186;3.236;2022-11-30T07:26:31;9.30;95.10
13521;DHT22;6832;51.186;3.236;2022-11-30T07:29:02;9.20;95.10
13521;DHT22;6832;51.186;3.236;2022-11-30T07:31:33;9.30;95.10
13521;DHT22;6832;51.186;3.236;2022-11-30T07:34:03;9.20;95.40
13521;DHT22;6832;51.186;3.236;2022-11-30T07:36:36;9.20;95.10
13521;DHT22;6832;51.186;3.236;2022-11-30T07:39:04;9.30;95.10
13521;DHT22;6832;51.186;3.236;2022-11-30T07:41:36;9.30;95.10
13521;DHT22;6832;51.186;3.236;2022-11-30T07:44:04;9.30;95.10
13521;DHT22;6832;51.186;3.236;2022-11-30T07:46:38;9.30;95.00
13521;DHT22;6832;51.186;3.236;2022-11-30T07:49:06;9.20;95.00
13521;DHT22;6832;51.186;3.236;2022-11-30T07:51:35;9.20;95.00
13521;DHT22;6832;51.186;3.236;2022-11-30T07:54:03;9.20;95.00
13521;DHT22;6832;51.186;3.236;2022-11-30T07:56:40;9.20;95.10
13521;DHT22;6832;51.186;3.236;2022-11-30T07:59:08;9.20;95.20
13521;DHT22;6832;51.186;3.236;2022-11-30T08:01:37;9.20;95.30
13521;DHT22;6832;51.186;3.236;2022-11-30T08:04:12;9.20;95.30
13521;DHT22;6832;51.186;3.236;2022-11-30T08:06:47;9.20;95.30
13521;DHT22;6832;51.186;3.236;2022-11-30T08:09:16;9.20;95.30
13521;DHT22;6832;51.186;3.236;2022-11-30T08:11:51;9.20;95.30
13521;DHT22;6832;51.186;3.236;2022-11-30T08:14:21;9.30;95.40
13521;DHT22;6832;51.186;3.236;2022-11-30T08:16:52;9.30;95.40
13521;DHT22;6832;51.186;3.236;2022-11-30T08:19:27;9.30;95.40
13521;DHT22;6832;51.186;3.236;2022-11-30T08:21:57;9.30;95.40
13521;DHT22;6832;51.186;3.236;2022-11-30T08:24:32;9.30;95.50
13521;DHT22;6832;51.186;3.236;2022-11-30T08:27:03;9.40;95.60
13521;DHT22;6832;51.186;3.236;2022-11-30T08:29:35;9.30;95.50
13521;DHT22;6832;51.186;3.236;2022-11-30T08:32:04;9.40;95.60
13521;DHT22;6832;51.186;3.236;2022-11-30T08:34:32;9.40;95.60
13521;DHT22;6832;51.186;3.236;2022-11-30T08:37:06;9.40;95.60
13521;DHT22;6832;51.186;3.236;2022-11-30T08:39:39;9.40;95.60
13521;DHT22;6832;51.186;3.236;2022-11-30T08:42:13;9.40;95.60
13521;DHT22;6832;51.186;3.236;2022-11-30T08:44:40;9.40;95.60
13521;DHT22;6832;51.186;3.236;2022-11-30T08:47:10;9.40;95.50
13521;DHT22;6832;51.186;3.236;2022-11-30T08:49:38;9.50;95.50
13521;DHT22;6832;51.186;3.236;2022-11-30T08:52:14;9.50;95.50
13521;DHT22;6832;51.186;3.236;2022-11-30T08:54:46;9.50;95.40
13521;DHT22;6832;51.186;3.236;2022-11-30T08:57:32;9.50;95.30
13521;DHT22;6832;51.186;3.236;2022-11-30T09:00:04;9.50;95.30
13521;DHT22;6832;51.186;3.236;2022-11-30T09:02:33;9.50;95.30
13521;DHT22;6832;51.186;3.236;2022-11-30T09:05:05;9.60;95.40
13521;DHT22;6832;51.186;3.236;2022-11-30T09:07:35;9.60;95.30
13521;DHT22;6832;51.186;3.236;2022-11-30T09:10:03;9.60;95.30
13521;DHT22;6832;51.186;3.236;2022-11-30T09:12:42;9.60;95.30
13521;DHT22;6832;51.186;3.236;2022-11-30T09:15:12;9.60;95.20
13521;DHT22;6832;51.186;3.236;2022-11-30T09:17:46;9.60;95.10
13521;DHT22;6832;51.186;3.236;2022-11-30T09:20:24;9.60;95.10
13521;DHT22;6832;51.186;3.236;2022-11-30T09:22:58;9.70;95.20
13521;DHT22;6832;51.186;3.236;2022-11-30T09:25:30;9.70;95.30
13521;DHT22;6832;51.186;3.236;2022-11-30T09:28:03;9.70;95.40
13521;DHT22;6832;51.186;3.236;2022-11-30T09:30:33;9.70;95.40
13521;DHT22;6832;51.186;3.236;2022-11-30T09:33:07;9.70;95.50
13521;DHT22;6832;51.186;3.236;2022-11-30T09:35:34;9.70;95.50
13521;DHT22;6832;51.186;3.236;2022-11-30T09:38:03;9.70;95.50
13521;DHT22;6832;51.186;3.236;2022-11-30T09:40:36;9.80;95.60
13521;DHT22;6832;51.186;3.236;2022-11-30T09:43:10;9.80;95.60
13521;DHT22;6832;51.186;3.236;2022-11-30T09:45:52;9.80;95.70
13521;DHT22;6832;51.186;3.236;2022-11-30T09:48:42;9.80;95.70
13521;DHT22;6832;51.186;3.236;2022-11-30T09:51:21;9.90;95.70
13521;DHT22;6832;51.186;3.236;2022-11-30T09:53:55;9.90;95.60
13521;DHT22;6832;51.186;3.236;2022-11-30T09:56:32;9.90;95.50
13521;DHT22;6832;51.186;3.236;2022-11-30T09:59:05;10.00;94.90
13521;DHT22;6832;51.186;3.236;2022-11-30T10:01:35;10.00;94.80
13521;DHT22;6832;51.186;3.236;2022-11-30T10:04:04;10.00;94.60
13521;DHT22;6832;51.186;3.236;2022-11-30T10:06:49;10.00;94.70
13521;DHT22;6832;51.186;3.236;2022-11-30T10:09:47;10.00;94.60
13521;DHT22;6832;51.186;3.236;2022-11-30T10:12:25;10.00;94.70
13521;DHT22;6832;51.186;3.236;2022-11-30T10:15:22;10.00;94.60
13521;DHT22;6832;51.186;3.236;2022-11-30T10:17:56;10.10;94.70
13521;DHT22;6832;51.186;3.236;2022-11-30T10:20:47;10.10;94.60
13521;DHT22;6832;51.186;3.236;2022-11-30T10:23:53;10.10;94.70
13521;DHT22;6832;51.186;3.236;2022-11-30T10:26:35;10.10;94.80
13521;DHT22;6832;51.186;3.236;2022-11-30T10:29:13;10.20;94.80
13521;DHT22;6832;51.186;3.236;2022-11-30T10:31:48;10.20;94.80
13521;DHT22;6832;51.186;3.236;2022-11-30T10:34:24;10.20;94.90
13521;DHT22;6832;51.186;3.236;2022-11-30T10:37:08;10.20;94.90
13521;DHT22;6832;51.186;3.236;2022-11-30T10:39:42;10.20;94.90
13521;DHT22;6832;51.186;3.236;2022-11-30T10:42:16;10.30;94.90
13521;DHT22;6832;51.186;3.236;2022-11-30T10:44:49;10.30;94.80
13521;DHT22;6832;51.186;3.236;2022-11-30T10:47:29;10.30;94.80
13521;DHT22;6832;51.186;3.236;2022-11-30T10:50:05;10.40;94.70
13521;DHT22;6832;51.186;3.236;2022-11-30T10:52:43;10.40;94.80
13521;DHT22;6832;51.186;3.236;2022-11-30T10:55:20;10.40;94.90
13521;DHT22;6832;51.186;3.236;2022-11-30T10:57:58;10.40;94.90
13521;DHT22;6832;51.186;3.236;2022-11-30T11:00:28;10.40;95.00
13521;DHT22;6832;51.186;3.236;2022-11-30T11:02:57;10.50;95.00
13521;DHT22;6832;51.186;3.236;2022-11-30T11:05:27;10.50;95.10
13521;DHT22;6832;51.186;3.236;2022-11-30T11:08:03;10.50;95.10
13521;DHT22;6832;51.186;3.236;2022-11-30T11:10:50;10.60;95.30
13521;DHT22;6832;51.186;3.236;2022-11-30T11:13:18;10.60;95.40
13521;DHT22;6832;51.186;3.236;2022-11-30T11:15:56;10.70;95.40
13521;DHT22;6832;51.186;3.236;2022-11-30T11:18:31;10.70;95.30
13521;DHT22;6832;51.186;3.236;2022-11-30T11:21:03;10.70;95.30
13521;DHT22;6832;51.186;3.236;2022-11-30T11:23:35;10.80;95.50
13521;DHT22;6832;51.186;3.236;2022-11-30T11:26:06;10.80;95.20
13521;DHT22;6832;51.186;3.236;2022-11-30T11:28:43;10.80;95.30
13521;DHT22;6832;51.186;3.236;2022-11-30T11:31:18;10.80;95.20
13521;DHT22;6832;51.186;3.236;2022-11-30T11:33:53;10.90;94.90
13521;DHT22;6832;51.186;3.236;2022-11-30T11:36:26;10.90;94.70
13521;DHT22;6832;51.186;3.236;2022-11-30T11:38:58;10.90;94.70
13521;DHT22;6832;51.186;3.236;2022-11-30T11:41:29;10.90;94.90
13521;DHT22;6832;51.186;3.236;2022-11-30T11:44:01;11.00;94.90
13521;DHT22;6832;51.186;3.236;2022-11-30T11:46:32;11.00;95.20
13521;DHT22;6832;51.186;3.236;2022-11-30T11:49:03;11.00;95.20
13521;DHT22;6832;51.186;3.236;2022-11-30T11:51:37;11.00;95.30
13521;DHT22;6832;51.186;3.236;2022-11-30T11:54:22;11.10;95.40
13521;DHT22;6832;51.186;3.236;2022-11-30T11:56:54;11.10;95.30
13521;DHT22;6832;51.186;3.236;2022-11-30T11:59:35;11.10;95.30
13521;DHT22;6832;51.186;3.236;2022-11-30T12:02:25;11.20;95.00
13521;DHT22;6832;51.186;3.236;2022-11-30T12:05:03;11.20;95.20
13521;DHT22;6832;51.186;3.236;2022-11-30T12:07:39;11.20;95.10
13521;DHT22;6832;51.186;3.236;2022-11-30T12:10:27;11.30;95.30
13521;DHT22;6832;51.186;3.236;2022-11-30T12:12:57;11.40;95.30
13521;DHT22;6832;51.186;3.236;2022-11-30T12:15:34;11.30;95.10
13521;DHT22;6832;51.186;3.236;2022-11-30T12:18:14;11.30;95.20
13521;DHT22;6832;51.186;3.236;2022-11-30T12:20:54;11.40;95.10
13521;DHT22;6832;51.186;3.236;2022-11-30T12:23:44;11.40;95.00
13521;DHT22;6832;51.186;3.236;2022-11-30T12:26:28;11.40;94.90
13521;DHT22;6832;51.186;3.236;2022-11-30T12:29:21;11.50;94.90
13521;DHT22;6832;51.186;3.236;2022-11-30T12:32:01;11.50;94.60
13521;DHT22;6832;51.186;3.236;2022-11-30T12:34:51;11.50;94.70
13521;DHT22;6832;51.186;3.236;2022-11-30T12:37:29;11.50;94.80
13521;DHT22;6832;51.186;3.236;2022-11-30T12:40:07;11.50;94.80
13521;DHT22;6832;51.186;3.236;2022-11-30T12:42:52;11.50;94.60
13521;DHT22;6832;51.186;3.236;2022-11-30T12:45:29;11.50;94.50
13521;DHT22;6832;51.186;3.236;2022-11-30T12:48:08;11.50;94.50
13521;DHT22;6832;51.186;3.236;2022-11-30T12:50:58;11.50;94.60
13521;DHT22;6832;51.186;3.236;2022-11-30T12:53:35;11.50;94.60
13521;DHT22;6832;51.186;3.236;2022-11-30T12:56:31;11.50;94.50
13521;DHT22;6832;51.186;3.236;2022-11-30T12:59:17;11.50;94.50
13521;DHT22;6832;51.186;3.236;2022-11-30T13:02:12;11.50;94.60
13521;DHT22;6832;51.186;3.236;2022-11-30T13:04:45;11.50;94.80
13521;DHT22;6832;51.186;3.236;2022-11-30T13:07:24;11.50;94.80
13521;DHT22;6832;51.186;3.236;2022-11-30T13:09:57;11.50;94.80
13521;DHT22;6832;51.186;3.236;2022-11-30T13:12:28;11.50;94.90
13521;DHT22;6832;51.186;3.236;2022-11-30T13:15:12;11.50;95.20
13521;DHT22;6832;51.186;3.236;2022-11-30T13:17:43;11.60;94.90
13521;DHT22;6832;51.186;3.236;2022-11-30T13:20:18;11.60;95.20
13521;DHT22;6832;51.186;3.236;2022-11-30T13:22:51;11.60;95.20
13521;DHT22;6832;51.186;3.236;2022-11-30T13:25:29;11.60;95.20
13521;DHT22;6832;51.186;3.236;2022-11-30T13:28:23;11.70;95.20
13521;DHT22;6832;51.186;3.236;2022-11-30T13:30:57;11.70;95.20
13521;DHT22;6832;51.186;3.236;2022-11-30T13:33:56;11.70;95.40
13521;DHT22;6832;51.186;3.236;2022-11-30T13:36:34;11.80;95.30
13521;DHT22;6832;51.186;3.236;2022-11-30T13:39:19;11.80;95.20
13521;DHT22;6832;51.186;3.236;2022-11-30T13:41:51;11.80;95.10
13521;DHT22;6832;51.186;3.236;2022-11-30T13:44:38;11.80;95.00
13521;DHT22;6832;51.186;3.236;2022-11-30T13:47:25;11.90;95.00
13521;DHT22;6832;51.186;3.236;2022-11-30T13:49:55;11.90;95.10
13521;DHT22;6832;51.186;3.236;2022-11-30T13:55:53;12.00;94.80
13521;DHT22;6832;51.186;3.236;2022-11-30T13:58:21;12.00;94.70
13521;DHT22;6832;51.186;3.236;2022-11-30T14:01:21;12.00;94.70
13521;DHT22;6832;51.186;3.236;2022-11-30T14:06:57;12.00;94.60
13521;DHT22;6832;51.186;3.236;2022-11-30T14:09:56;12.00;94.70
13521;DHT22;6832;51.186;3.236;2022-11-30T14:12:47;12.00;94.50
13521;DHT22;6832;51.186;3.236;2022-11-30T14:15:29;12.00;94.60
13521;DHT22;6832;51.186;3.236;2022-11-30T14:18:37;12.10;94.60
13521;DHT22;6832;51.186;3.236;2022-11-30T14:21:21;12.10;94.60
13521;DHT22;6832;51.186;3.236;2022-11-30T14:24:02;12.10;94.60
13521;DHT22;6832;51.186;3.236;2022-11-30T14:26:42;12.10;94.80
13521;DHT22;6832;51.186;3.236;2022-11-30T14:29:17;12.10;94.60
13521;DHT22;6832;51.186;3.236;2022-11-30T14:31:51;12.10;94.50
13521;DHT22;6832;51.186;3.236;2022-11-30T14:34:22;12.20;94.60
13521;DHT22;6832;51.186;3.236;2022-11-30T14:36:58;12.20;94.60
13521;DHT22;6832;51.186;3.236;2022-11-30T14:39:36;12.20;94.60
13521;DHT22;6832;51.186;3.236;2022-11-30T14:42:04;12.20;94.60
13521;DHT22;6832;51.186;3.236;2022-11-30T14:44:39;12.20;94.60
13521;DHT22;6832;51.186;3.236;2022-11-30T14:47:21;12.20;94.60
13521;DHT22;6832;51.186;3.236;2022-11-30T14:49:51;12.20;94.40
13521;DHT22;6832;51.186;3.236;2022-11-30T14:52:42;12.20;94.60
13521;DHT22;6832;51.186;3.236;2022-11-30T14:55:25;12.20;94.60
13521;DHT22;6832;51.186;3.236;2022-11-30T14:58:02;12.20;94.60
13521;DHT22;6832;51.186;3.236;2022-11-30T15:00:37;12.20;94.60
13521;DHT22;6832;51.186;3.236;2022-11-30T15:03:18;12.20;94.60
13521;DHT22;6832;51.186;3.236;2022-11-30T15:05:55;12.30;94.70
13521;DHT22;6832;51.186;3.236;2022-11-30T15:08:39;12.30;94.70
13521;DHT22;6832;51.186;3.236;2022-11-30T15:11:11;12.30;94.60
13521;DHT22;6832;51.186;3.236;2022-11-30T15:13:46;12.20;94.60
13521;DHT22;6832;51.186;3.236;2022-11-30T15:16:24;12.20;94.20
13521;DHT22;6832;51.186;3.236;2022-11-30T15:18:54;12.20;94.10
13521;DHT22;6832;51.186;3.236;2022-11-30T15:21:27;12.20;94.20
13521;DHT22;6832;51.186;3.236;2022-11-30T15:23:56;12.20;94.20
13521;DHT22;6832;51.186;3.236;2022-11-30T15:26:28;12.20;94.20
13521;DHT22;6832;51.186;3.236;2022-11-30T15:29:02;12.10;94.10
13521;DHT22;6832;51.186;3.236;2022-11-30T15:31:34;12.10;94.10
13521;DHT22;6832;51.186;3.236;2022-11-30T15:34:04;12.10;94.10
13521;DHT22;6832;51.186;3.236;2022-11-30T15:36:36;12.10;94.20
13521;DHT22;6832;51.186;3.236;2022-11-30T15:39:07;12.10;94.20
13521;DHT22;6832;51.186;3.236;2022-11-30T15:41:44;12.00;94.20
13521;DHT22;6832;51.186;3.236;2022-11-30T15:44:25;12.00;94.20
13521;DHT22;6832;51.186;3.236;2022-11-30T15:46:56;12.00;94.10
13521;DHT22;6832;51.186;3.236;2022-11-30T15:49:25;12.00;94.30
13521;DHT22;6832;51.186;3.236;2022-11-30T15:52:01;12.00;94.30
13521;DHT22;6832;51.186;3.236;2022-11-30T15:54:47;11.90;94.30
13521;DHT22;6832;51.186;3.236;2022-11-30T15:57:17;11.90;94.40
13521;DHT22;6832;51.186;3.236;2022-11-30T16:00:07;12.00;94.50
13521;DHT22;6832;51.186;3.236;2022-11-30T16:02:42;11.90;94.50
13521;DHT22;6832;51.186;3.236;2022-11-30T16:05:31;11.90;94.40
13521;DHT22;6832;51.186;3.236;2022-11-30T16:07:59;11.90;94.40
13521;DHT22;6832;51.186;3.236;2022-11-30T16:10:32;11.90;94.40
13521;DHT22;6832;51.186;3.236;2022-11-30T16:13:03;11.90;94.40
13521;DHT22;6832;51.186;3.236;2022-11-30T16:15:33;11.90;94.50
13521;DHT22;6832;51.186;3.236;2022-11-30T16:18:09;11.90;94.50
13521;DHT22;6832;51.186;3.236;2022-11-30T16:20:42;11.90;94.50
13521;DHT22;6832;51.186;3.236;2022-11-30T16:23:18;11.90;94.50
13521;DHT22;6832;51.186;3.236;2022-11-30T16:25:52;11.90;94.40
13521;DHT22;6832;51.186;3.236;2022-11-30T16:28:25;11.90;94.40
13521;DHT22;6832;51.186;3.236;2022-11-30T16:30:59;11.90;94.40
13521;DHT22;6832;51.186;3.236;2022-11-30T16:33:32;11.90;94.40
13521;DHT22;6832;51.186;3.236;2022-11-30T16:36:01;11.80;94.30
13521;DHT22;6832;51.186;3.236;2022-11-30T16:38:46;11.80;94.40
13521;DHT22;6832;51.186;3.236;2022-11-30T16:41:17;11.80;94.40
13521;DHT22;6832;51.186;3.236;2022-11-30T16:43:51;11.80;94.40
13521;DHT22;6832;51.186;3.236;2022-11-30T16:46:23;11.80;94.40
13521;DHT22;6832;51.186;3.236;2022-11-30T16:48:53;11.80;94.40
13521;DHT22;6832;51.186;3.236;2022-11-30T16:51:25;11.80;94.40
13521;DHT22;6832;51.186;3.236;2022-11-30T16:53:56;11.80;94.40
13521;DHT22;6832;51.186;3.236;2022-11-30T16:56:29;11.70;94.40
13521;DHT22;6832;51.186;3.236;2022-11-30T16:58:58;11.70;94.30
13521;DHT22;6832;51.186;3.236;2022-11-30T17:01:28;11.70;94.40
13521;DHT22;6832;51.186;3.236;2022-11-30T17:04:08;11.70;94.30
13521;DHT22;6832;51.186;3.236;2022-11-30T17:06:41;11.70;94.40
13521;DHT22;6832;51.186;3.236;2022-11-30T17:09:11;11.70;94.40
13521;DHT22;6832;51.186;3.236;2022-11-30T17:11:42;11.70;94.40
13521;DHT22;6832;51.186;3.236;2022-11-30T17:14:20;11.70;94.20